Time;durP1;ratioP1;P1;durP2;ratioP2;P2;SDS_P1;SDS_P2;PMS_P1;PMS_P2;Temp;Humidity;BMP_temperature;BMP_pressure;BME280_temperature;BME280_humidity;BME280_pressure;Samples;Min_cycle;Max_cycle;Signal;HPM_P1;HPM_P2
2021/11/13 00:00:17;;;;;;;;;;;;;;;8.63;100.00;98586.69;5020651;28;20433;-68
2021/11/13 00:02:42;;;;;;;;;;;;;;;8.45;100.00;98582.13;5020498;28;20299;-68
2021/11/13 00:05:08;;;;;;;;;;;;;;;8.67;100.00;98585.72;5003191;28;19927;-68
2021/11/13 00:07:33;;;;;;;;;;;;;;;8.68;100.00;98584.81;5003951;28;20011;-68
2021/11/13 00:09:58;;;;;;;;;;;;;;;8.83;100.00;98578.38;5020287;28;20024;-68
2021/11/13 00:12:24;;;;;;;;;;;;;;;8.87;100.00;98579.09;5020958;28;19920;-68
2021/11/13 00:14:53;;;;;;;;;;;;;;;8.79;100.00;98572.50;5003745;28;19939;-68
2021/11/13 00:17:18;;;;;;;;;;;;;;;8.81;100.00;98575.03;5020473;28;19948;-68
2021/11/13 00:19:44;;;;;;;;;;;;;;;8.58;100.00;98562.91;5021123;28;19917;-68
2021/11/13 00:22:09;;;;;;;;;;;;;;;8.47;100.00;98567.53;5020639;28;20326;-68
2021/11/13 00:24:36;;;;;;;;;;;;;;;8.46;100.00;98568.41;5022803;28;20422;-68
2021/11/13 00:27:02;;;;;;;;;;;;;;;8.54;100.00;98571.59;5024835;28;19929;-68
2021/11/13 00:29:27;;;;;;;;;;;;;;;8.66;100.00;98571.19;5020756;28;19917;-68
2021/11/13 00:31:54;;;;;;;;;;;;;;;8.81;100.00;98569.88;5018655;28;19932;-68
2021/11/13 00:34:19;;;;;;;;;;;;;;;8.78;100.00;98565.69;5019449;28;19941;-68
2021/11/13 00:36:45;;;;;;;;;;;;;;;8.64;100.00;98555.00;5019038;28;19924;-68
2021/11/13 00:39:11;;;;;;;;;;;;;;;8.63;100.00;98534.53;5002497;28;19917;-68
2021/11/13 00:41:36;;;;;;;;;;;;;;;8.38;100.00;98519.88;5017159;28;19921;-68
2021/11/13 00:44:02;;;;;;;;;;;;;;;8.65;100.00;98531.03;5020223;28;20024;-68
2021/11/13 00:46:28;;;;;;;;;;;;;;;8.53;100.00;98528.81;5019101;28;20871;-68
2021/11/13 00:48:53;;;;;;;;;;;;;;;8.75;100.00;98534.97;5020008;28;20596;-68
2021/11/13 00:51:19;;;;;;;;;;;;;;;8.74;100.00;98528.16;5018359;28;20079;-68
2021/11/13 00:53:44;;;;;;;;;;;;;;;8.41;100.00;98516.38;5018066;28;19920;-68
2021/11/13 00:56:09;;;;;;;;;;;;;;;8.68;100.00;98523.22;5018617;28;19925;-68
2021/11/13 00:58:36;;;;;;;;;;;;;;;8.81;100.00;98538.25;5019590;28;20935;-68
2021/11/13 01:01:02;;;;;;;;;;;;;;;8.86;100.00;98541.50;5018204;28;19925;-68
2021/11/13 01:03:28;;;;;;;;;;;;;;;8.89;100.00;98546.53;5018813;28;19920;-68
2021/11/13 01:05:56;;;;;;;;;;;;;;;9.53;100.00;98554.63;5019266;28;19920;-68
2021/11/13 01:08:21;;;;;;;;;;;;;;;8.98;100.00;98561.63;5019020;28;19921;-68
2021/11/13 01:10:47;;;;;;;;;;;;;;;9.36;100.00;98556.94;5019408;28;19924;-68
2021/11/13 01:13:12;;;;;;;;;;;;;;;9.54;100.00;98556.31;5017538;28;19924;-68
2021/11/13 01:15:38;;;;;;;;;;;;;;;9.30;100.00;98557.16;5017504;28;19921;-67
2021/11/13 01:18:03;;;;;;;;;;;;;;;9.38;100.00;98557.75;5019130;28;20042;-68
2021/11/13 01:20:29;;;;;;;;;;;;;;;8.97;100.00;98560.78;5018208;28;19967;-68
2021/11/13 01:22:55;;;;;;;;;;;;;;;8.89;100.00;98572.19;5019777;28;20068;-68
2021/11/13 01:25:20;;;;;;;;;;;;;;;8.97;100.00;98565.94;5018506;28;19932;-68
2021/11/13 01:27:46;;;;;;;;;;;;;;;9.12;100.00;98561.19;5019152;28;19964;-68
2021/11/13 01:30:13;;;;;;;;;;;;;;;9.08;100.00;98563.03;5000206;28;20635;-68
2021/11/13 01:32:38;;;;;;;;;;;;;;;9.06;100.00;98564.78;5018848;28;19924;-68
2021/11/13 01:35:05;;;;;;;;;;;;;;;9.17;100.00;98562.72;5018730;28;19921;-68
2021/11/13 01:37:31;;;;;;;;;;;;;;;8.79;100.00;98564.78;5018241;28;19925;-68
2021/11/13 01:39:56;;;;;;;;;;;;;;;8.71;100.00;98566.78;5017250;28;19937;-68
2021/11/13 01:42:25;;;;;;;;;;;;;;;8.72;100.00;98553.03;5018926;28;19961;-67
2021/11/13 01:44:52;;;;;;;;;;;;;;;8.29;100.00;98548.38;5018472;28;19925;-67
2021/11/13 01:47:17;;;;;;;;;;;;;;;8.48;100.00;98533.28;5000488;28;19925;-68
2021/11/13 01:49:42;;;;;;;;;;;;;;;8.53;100.00;98531.41;5016746;28;19931;-67
2021/11/13 01:52:11;;;;;;;;;;;;;;;8.03;100.00;98531.16;5019411;28;19917;-67
2021/11/13 01:54:39;;;;;;;;;;;;;;;8.29;100.00;98530.41;5000607;28;19925;-67
2021/11/13 01:57:08;;;;;;;;;;;;;;;8.09;100.00;98524.13;5016848;28;19971;-68
2021/11/13 01:59:34;;;;;;;;;;;;;;;8.23;100.00;98516.03;5018420;28;19928;-67
2021/11/13 02:02:00;;;;;;;;;;;;;;;8.73;100.00;98513.63;5019097;28;19917;-68
2021/11/13 02:04:25;;;;;;;;;;;;;;;8.74;100.00;98501.66;5014887;28;19921;-68
2021/11/13 02:06:50;;;;;;;;;;;;;;;8.38;100.00;98507.03;5017968;28;19932;-68
2021/11/13 02:09:16;;;;;;;;;;;;;;;8.26;100.00;98500.56;5017970;28;20008;-68
2021/11/13 02:11:41;;;;;;;;;;;;;;;8.07;100.00;98495.13;5018848;28;19917;-67
2021/11/13 02:14:07;;;;;;;;;;;;;;;8.38;100.00;98499.34;5001100;28;19967;-68
2021/11/13 02:16:33;;;;;;;;;;;;;;;8.27;100.00;98486.00;5018137;28;19913;-67
2021/11/13 02:18:59;;;;;;;;;;;;;;;8.31;100.00;98483.28;5016070;28;19948;-68
2021/11/13 02:21:27;;;;;;;;;;;;;;;8.17;100.00;98490.59;5001552;28;20067;-67
2021/11/13 02:23:53;;;;;;;;;;;;;;;7.82;100.00;98469.38;5017621;28;20541;-68
2021/11/13 02:26:18;;;;;;;;;;;;;;;7.90;100.00;98471.72;5018270;28;19925;-68
2021/11/13 02:28:44;;;;;;;;;;;;;;;7.87;100.00;98466.72;5018170;28;19929;-67
2021/11/13 02:31:10;;;;;;;;;;;;;;;7.86;100.00;98467.56;5018247;28;19929;-68
2021/11/13 02:33:35;;;;;;;;;;;;;;;7.89;100.00;98463.22;4998937;28;20376;-67
2021/11/13 02:36:01;;;;;;;;;;;;;;;7.65;100.00;98461.34;5000704;28;19928;-68
2021/11/13 02:38:32;;;;;;;;;;;;;;;8.11;100.00;98457.41;5000089;28;19917;-68
2021/11/13 02:40:59;;;;;;;;;;;;;;;8.05;100.00;98457.59;5003258;28;20454;-68
2021/11/13 02:43:28;;;;;;;;;;;;;;;8.14;100.00;98455.59;5017687;28;20016;-68
2021/11/13 02:45:54;;;;;;;;;;;;;;;7.88;100.00;98464.06;4994055;28;19972;-68
2021/11/13 02:48:20;;;;;;;;;;;;;;;7.82;100.00;98461.69;5017200;28;19970;-67
2021/11/13 02:50:45;;;;;;;;;;;;;;;7.72;100.00;98465.41;5001243;28;19967;-68
2021/11/13 02:53:12;;;;;;;;;;;;;;;7.95;100.00;98465.56;5019962;28;20421;-67
2021/11/13 02:55:40;;;;;;;;;;;;;;;7.85;100.00;98458.22;5021719;28;19921;-67
2021/11/13 02:58:05;;;;;;;;;;;;;;;7.98;100.00;98462.06;5020076;28;19921;-68
2021/11/13 03:00:31;;;;;;;;;;;;;;;8.01;100.00;98453.47;5020819;28;21089;-68
2021/11/13 03:02:56;;;;;;;;;;;;;;;7.99;100.00;98452.69;5021332;28;19975;-67
2021/11/13 03:05:35;;;;;;;;;;;;;;;8.13;100.00;98456.47;5022385;28;20560;-68
2021/11/13 03:08:02;;;;;;;;;;;;;;;8.00;100.00;98451.78;5020280;28;20424;-67
2021/11/13 03:10:29;;;;;;;;;;;;;;;8.01;100.00;98456.88;5021907;28;19980;-68
2021/11/13 03:12:57;;;;;;;;;;;;;;;8.01;100.00;98448.34;5021220;28;19963;-68
2021/11/13 03:15:23;;;;;;;;;;;;;;;8.21;100.00;98446.00;5022131;28;19924;-68
2021/11/13 03:17:49;;;;;;;;;;;;;;;8.10;100.00;98451.44;5021054;28;21051;-68
2021/11/13 03:20:16;;;;;;;;;;;;;;;7.92;100.00;98450.28;5021249;28;19940;-67
2021/11/13 03:22:41;;;;;;;;;;;;;;;7.92;100.00;98447.72;5021371;28;20410;-68
2021/11/13 03:25:11;;;;;;;;;;;;;;;7.90;100.00;98439.22;5021530;28;19917;-68
2021/11/13 03:27:37;;;;;;;;;;;;;;;8.04;100.00;98453.38;5019948;28;19971;-68
2021/11/13 03:30:03;;;;;;;;;;;;;;;8.15;100.00;98446.19;4987152;28;19921;-68
2021/11/13 03:32:29;;;;;;;;;;;;;;;8.26;100.00;98449.25;5021575;28;19924;-67
2021/11/13 03:34:54;;;;;;;;;;;;;;;7.99;100.00;98435.56;5019742;28;20985;-68
2021/11/13 03:37:19;;;;;;;;;;;;;;;8.23;100.00;98443.38;5020979;28;19932;-68
2021/11/13 03:39:45;;;;;;;;;;;;;;;8.00;100.00;98439.78;5023069;28;19917;-67
2021/11/13 03:42:10;;;;;;;;;;;;;;;7.93;100.00;98451.94;5024259;28;20342;-69
2021/11/13 03:44:36;;;;;;;;;;;;;;;7.93;100.00;98451.13;5004579;28;20388;-67
2021/11/13 03:47:01;;;;;;;;;;;;;;;8.01;100.00;98443.22;5024644;28;19928;-68
2021/11/13 03:49:32;;;;;;;;;;;;;;;7.83;100.00;98442.03;5025721;28;19917;-68
2021/11/13 03:51:59;;;;;;;;;;;;;;;7.85;100.00;98445.41;5026673;28;19931;-68
2021/11/13 03:54:24;;;;;;;;;;;;;;;7.92;100.00;98452.84;5025587;28;20375;-68
2021/11/13 03:56:50;;;;;;;;;;;;;;;8.05;100.00;98450.75;5025001;28;19940;-68
2021/11/13 03:59:15;;;;;;;;;;;;;;;8.21;100.00;98465.66;5024574;28;19925;-68
2021/11/13 04:01:40;;;;;;;;;;;;;;;8.33;100.00;98470.44;5026013;28;20044;-68
2021/11/13 04:04:06;;;;;;;;;;;;;;;8.35;100.00;98477.19;5024990;28;19921;-68
2021/11/13 04:06:31;;;;;;;;;;;;;;;8.58;100.00;98470.50;5026138;28;20429;-68
2021/11/13 04:08:56;;;;;;;;;;;;;;;8.30;100.00;98476.50;5006969;28;19917;-68
2021/11/13 04:11:22;;;;;;;;;;;;;;;8.38;100.00;98479.63;5024872;28;19921;-68
2021/11/13 04:13:47;;;;;;;;;;;;;;;8.44;100.00;98482.94;5025699;28;19955;-68
2021/11/13 04:16:12;;;;;;;;;;;;;;;8.41;100.00;98477.91;5024809;28;19917;-68
2021/11/13 04:18:38;;;;;;;;;;;;;;;8.29;100.00;98484.22;5024340;28;19917;-68
2021/11/13 04:21:03;;;;;;;;;;;;;;;8.23;100.00;98469.84;5025423;28;19917;-70
2021/11/13 04:23:29;;;;;;;;;;;;;;;8.23;100.00;98489.53;5007809;28;19967;-70
2021/11/13 04:25:55;;;;;;;;;;;;;;;7.91;100.00;98478.53;5025781;28;20300;-69
2021/11/13 04:28:20;;;;;;;;;;;;;;;8.10;100.00;98494.22;5023763;28;19940;-70
2021/11/13 04:30:46;;;;;;;;;;;;;;;8.19;100.00;98488.81;5026000;28;20456;-69
2021/11/13 04:33:11;;;;;;;;;;;;;;;8.15;100.00;98490.63;5025534;28;19913;-69
2021/11/13 04:36:00;;;;;;;;;;;;;;;8.38;100.00;98489.06;5026686;28;19913;-69
2021/11/13 04:38:27;;;;;;;;;;;;;;;8.30;100.00;98499.59;5026299;28;19917;-70
2021/11/13 04:40:52;;;;;;;;;;;;;;;8.41;100.00;98501.00;5026031;28;19917;-69
2021/11/13 04:43:17;;;;;;;;;;;;;;;8.23;100.00;98499.81;5027348;28;19923;-69
2021/11/13 04:45:43;;;;;;;;;;;;;;;8.47;100.00;98490.53;5028050;28;20063;-69
2021/11/13 04:48:08;;;;;;;;;;;;;;;8.56;100.00;98492.81;5026799;28;19921;-69
2021/11/13 04:50:36;;;;;;;;;;;;;;;8.49;100.00;98499.03;5027067;28;19913;-69
2021/11/13 04:53:02;;;;;;;;;;;;;;;8.57;100.00;98503.00;5008313;28;19917;-70
2021/11/13 04:55:28;;;;;;;;;;;;;;;8.20;100.00;98500.75;5009183;28;19963;-69
2021/11/13 04:57:53;;;;;;;;;;;;;;;8.30;100.00;98497.03;5008236;28;19967;-70
2021/11/13 05:00:20;;;;;;;;;;;;;;;8.48;100.00;98495.59;5009117;28;19913;-70
2021/11/13 05:02:46;;;;;;;;;;;;;;;8.42;100.00;98502.69;5027084;28;19957;-70
2021/11/13 05:05:14;;;;;;;;;;;;;;;8.06;100.00;98498.59;5028062;28;19960;-70
2021/11/13 05:07:39;;;;;;;;;;;;;;;8.11;100.00;98511.28;5026822;28;19971;-70
2021/11/13 05:10:06;;;;;;;;;;;;;;;8.28;100.00;98515.88;5026490;28;19976;-70
2021/11/13 05:12:31;;;;;;;;;;;;;;;8.46;100.00;98514.50;5027629;28;19921;-70
2021/11/13 05:14:57;;;;;;;;;;;;;;;8.52;100.00;98522.03;5027639;28;19913;-70
2021/11/13 05:17:22;;;;;;;;;;;;;;;8.28;100.00;98524.44;5027655;28;19920;-70
2021/11/13 05:19:47;;;;;;;;;;;;;;;8.07;100.00;98520.78;5026881;28;19913;-70
2021/11/13 05:22:13;;;;;;;;;;;;;;;8.16;100.00;98535.91;5008605;28;19913;-70
2021/11/13 05:24:38;;;;;;;;;;;;;;;8.38;100.00;98530.97;5026424;28;19921;-70
2021/11/13 05:27:03;;;;;;;;;;;;;;;8.42;100.00;98536.03;5008994;28;19928;-70
2021/11/13 05:29:29;;;;;;;;;;;;;;;8.29;100.00;98530.41;5025012;28;19921;-70
2021/11/13 05:31:54;;;;;;;;;;;;;;;8.53;100.00;98529.69;5007006;28;19921;-69
2021/11/13 05:34:22;;;;;;;;;;;;;;;8.51;100.00;98528.06;5026000;28;19921;-69
2021/11/13 05:36:51;;;;;;;;;;;;;;;8.20;100.00;98523.81;5025020;28;19933;-70
2021/11/13 05:39:16;;;;;;;;;;;;;;;8.40;100.00;98535.22;5024268;28;20383;-70
2021/11/13 05:41:42;;;;;;;;;;;;;;;8.19;100.00;98534.97;5025598;28;19947;-70
2021/11/13 05:44:07;;;;;;;;;;;;;;;8.17;100.00;98558.09;5025595;28;19963;-69
2021/11/13 05:46:32;;;;;;;;;;;;;;;8.57;100.00;98558.66;5025396;28;20006;-69
2021/11/13 05:48:58;;;;;;;;;;;;;;;8.58;100.00;98560.34;5006905;28;20384;-70
2021/11/13 05:51:23;;;;;;;;;;;;;;;8.71;100.00;98561.66;5025386;28;19920;-70
2021/11/13 05:53:49;;;;;;;;;;;;;;;8.52;100.00;98555.38;5026235;28;19917;-69
2021/11/13 05:56:14;;;;;;;;;;;;;;;8.56;100.00;98560.38;5025235;28;19927;-69
2021/11/13 05:58:39;;;;;;;;;;;;;;;8.56;100.00;98570.66;5024656;28;19925;-69
2021/11/13 06:01:05;;;;;;;;;;;;;;;8.56;100.00;98573.22;5023838;28;19929;-70
2021/11/13 06:03:30;;;;;;;;;;;;;;;8.37;100.00;98570.34;5006859;28;19927;-70
2021/11/13 06:05:56;;;;;;;;;;;;;;;8.64;100.00;98578.09;5024714;28;19967;-70
2021/11/13 06:08:21;;;;;;;;;;;;;;;8.33;100.00;98584.13;5026348;28;19917;-70
2021/11/13 06:10:46;;;;;;;;;;;;;;;8.62;100.00;98587.59;5026147;28;19923;-69
2021/11/13 06:13:11;;;;;;;;;;;;;;;8.55;100.00;98586.94;5025677;28;19913;-70
2021/11/13 06:15:43;;;;;;;;;;;;;;;8.29;100.00;98587.69;5026155;28;20019;-70
2021/11/13 06:18:08;;;;;;;;;;;;;;;8.63;100.00;98596.13;5026113;28;19917;-70
2021/11/13 06:20:34;;;;;;;;;;;;;;;8.59;100.00;98585.09;5008490;28;19924;-70
2021/11/13 06:22:59;;;;;;;;;;;;;;;8.44;100.00;98586.44;5008262;28;19997;-70
2021/11/13 06:25:24;;;;;;;;;;;;;;;8.34;100.00;98585.81;5027377;28;19919;-70
2021/11/13 06:27:50;;;;;;;;;;;;;;;8.04;100.00;98599.53;5030111;28;19917;-70
2021/11/13 06:30:16;;;;;;;;;;;;;;;7.98;100.00;98592.84;5029080;28;19932;-69
2021/11/13 06:32:41;;;;;;;;;;;;;;;8.27;100.00;98617.66;5029833;28;20387;-70
2021/11/13 06:35:08;;;;;;;;;;;;;;;8.07;100.00;98617.38;5029275;28;19932;-68
2021/11/13 06:37:33;;;;;;;;;;;;;;;8.17;100.00;98618.81;5024985;28;19971;-67
2021/11/13 06:39:58;;;;;;;;;;;;;;;8.09;100.00;98616.47;5028737;28;19929;-70
2021/11/13 06:42:24;;;;;;;;;;;;;;;8.36;100.00;98630.22;5010017;28;19925;-70
2021/11/13 06:44:49;;;;;;;;;;;;;;;8.27;100.00;98625.38;5029369;28;19948;-70
2021/11/13 06:47:14;;;;;;;;;;;;;;;8.47;100.00;98637.66;5029090;28;19963;-69
2021/11/13 06:49:45;;;;;;;;;;;;;;;8.44;100.00;98636.88;5029916;28;19913;-70
2021/11/13 06:52:10;;;;;;;;;;;;;;;8.42;100.00;98636.13;5029270;28;19971;-67
2021/11/13 06:54:36;;;;;;;;;;;;;;;8.31;100.00;98629.53;5010316;28;19917;-70
2021/11/13 06:57:05;;;;;;;;;;;;;;;8.12;100.00;98631.78;5027376;28;19975;-70
2021/11/13 06:59:30;;;;;;;;;;;;;;;8.32;100.00;98632.94;5022652;28;19922;-69
2021/11/13 07:01:56;;;;;;;;;;;;;;;8.27;100.00;98638.19;5027326;28;20034;-68
2021/11/13 07:04:24;;;;;;;;;;;;;;;8.23;100.00;98634.03;5025366;28;20011;-69
2021/11/13 07:06:58;;;;;;;;;;;;;;;8.17;100.00;98639.34;5028710;28;19928;-69
2021/11/13 07:09:24;;;;;;;;;;;;;;;8.18;100.00;98641.00;5021523;28;19932;-69
2021/11/13 07:11:49;;;;;;;;;;;;;;;8.25;100.00;98639.94;5009407;28;19921;-68
2021/11/13 07:14:20;;;;;;;;;;;;;;;8.26;100.00;98649.34;4990712;28;19928;-69
2021/11/13 07:16:46;;;;;;;;;;;;;;;8.33;100.00;98650.00;5008467;28;20483;-69
2021/11/13 07:19:11;;;;;;;;;;;;;;;8.47;100.00;98647.91;5008488;28;20012;-69
2021/11/13 07:21:40;;;;;;;;;;;;;;;8.38;100.00;98637.88;5026296;28;19913;-69
2021/11/13 07:24:06;;;;;;;;;;;;;;;8.26;100.00;98633.97;5026494;28;19923;-69
2021/11/13 07:26:38;;;;;;;;;;;;;;;8.17;100.00;98626.53;5025297;28;20024;-69
2021/11/13 07:29:13;;;;;;;;;;;;;;;8.17;100.00;98639.34;5027250;28;19913;-69
2021/11/13 07:31:39;;;;;;;;;;;;;;;8.32;100.00;98628.63;5026989;28;19928;-69
2021/11/13 07:34:04;;;;;;;;;;;;;;;8.25;100.00;98639.94;5026156;28;20277;-69
2021/11/13 07:36:30;;;;;;;;;;;;;;;8.32;100.00;98641.44;5025844;28;20886;-69
2021/11/13 07:38:55;;;;;;;;;;;;;;;8.23;100.00;98649.41;5026064;28;19917;-69
2021/11/13 07:41:23;;;;;;;;;;;;;;;8.45;100.00;98644.56;5025406;28;20338;-69
2021/11/13 07:43:49;;;;;;;;;;;;;;;8.32;100.00;98648.31;5025407;28;19921;-69
2021/11/13 07:46:17;;;;;;;;;;;;;;;8.50;100.00;98646.97;5024740;28;19921;-69
2021/11/13 07:48:42;;;;;;;;;;;;;;;8.54;100.00;98638.31;5008489;28;19917;-69
2021/11/13 07:51:08;;;;;;;;;;;;;;;9.00;100.00;98650.56;5025668;28;21025;-69
2021/11/13 07:53:34;;;;;;;;;;;;;;;8.81;100.00;98657.19;5024074;28;19932;-69
2021/11/13 07:55:59;;;;;;;;;;;;;;;8.78;100.00;98663.25;5025740;28;19924;-69
2021/11/13 07:58:25;;;;;;;;;;;;;;;8.48;100.00;98653.88;5025518;28;19925;-69
2021/11/13 08:00:50;;;;;;;;;;;;;;;9.08;100.00;98660.63;5026373;28;20381;-69
2021/11/13 08:03:16;;;;;;;;;;;;;;;8.95;100.00;98654.19;5026845;28;19956;-69
2021/11/13 08:05:42;;;;;;;;;;;;;;;8.90;100.00;98656.06;5025395;28;19959;-69
2021/11/13 08:08:10;;;;;;;;;;;;;;;8.95;100.00;98649.88;5007828;28;19921;-69
2021/11/13 08:10:41;;;;;;;;;;;;;;;8.99;100.00;98648.91;5007867;28;19960;-69
2021/11/13 08:13:14;;;;;;;;;;;;;;;9.04;100.00;98643.63;5025220;28;19948;-69
2021/11/13 08:15:39;;;;;;;;;;;;;;;8.96;100.00;98640.44;5024408;28;20387;-69
2021/11/13 08:18:05;;;;;;;;;;;;;;;8.72;100.00;98642.91;5025036;28;19928;-69
2021/11/13 08:20:30;;;;;;;;;;;;;;;8.99;100.00;98651.47;5027277;28;21266;-69
2021/11/13 08:22:56;;;;;;;;;;;;;;;8.98;100.00;98643.81;5027093;28;20465;-69
2021/11/13 08:25:22;;;;;;;;;;;;;;;9.05;100.00;98639.31;5022963;28;20462;-69
2021/11/13 08:27:47;;;;;;;;;;;;;;;8.79;100.00;98649.53;5024642;28;19949;-69
2021/11/13 08:30:15;;;;;;;;;;;;;;;8.89;100.00;98654.38;5025721;28;20004;-69
2021/11/13 08:32:41;;;;;;;;;;;;;;;8.71;100.00;98655.78;5026373;28;20334;-69
2021/11/13 08:35:07;;;;;;;;;;;;;;;9.06;100.00;98662.41;5027094;28;19952;-69
2021/11/13 08:37:34;;;;;;;;;;;;;;;8.81;100.00;98656.34;5026863;28;20026;-69
2021/11/13 08:39:59;;;;;;;;;;;;;;;8.87;100.00;98666.41;4991781;28;20365;-68
2021/11/13 08:42:25;;;;;;;;;;;;;;;8.98;100.00;98665.19;5028719;28;19996;-68
2021/11/13 08:44:51;;;;;;;;;;;;;;;9.08;100.00;98660.63;5005681;28;19924;-67
2021/11/13 08:47:17;;;;;;;;;;;;;;;9.38;100.00;98657.97;5013371;28;20506;-68
2021/11/13 08:49:44;;;;;;;;;;;;;;;9.19;100.00;98643.16;5027492;28;20003;-68
2021/11/13 08:52:10;;;;;;;;;;;;;;;9.19;100.00;98652.56;5029082;28;19917;-68
2021/11/13 08:54:37;;;;;;;;;;;;;;;9.42;100.00;98649.28;5011910;28;20342;-68
2021/11/13 08:57:06;;;;;;;;;;;;;;;9.55;100.00;98640.25;5027561;28;19913;-69
2021/11/13 08:59:32;;;;;;;;;;;;;;;9.13;100.00;98640.78;5028219;28;20410;-68
2021/11/13 09:01:58;;;;;;;;;;;;;;;9.32;100.00;98643.56;5029638;28;19913;-69
2021/11/13 09:04:23;;;;;;;;;;;;;;;9.23;100.00;98635.34;5029812;28;20458;-68
2021/11/13 09:06:49;;;;;;;;;;;;;;;9.13;100.00;98638.19;5010560;28;19967;-68
2021/11/13 09:09:14;;;;;;;;;;;;;;;9.45;100.00;98643.19;5027729;28;19917;-69
2021/11/13 09:11:40;;;;;;;;;;;;;;;9.41;100.00;98639.88;5029073;28;19967;-68
2021/11/13 09:14:06;;;;;;;;;;;;;;;9.38;100.00;98642.56;5029439;28;19913;-69
2021/11/13 09:16:32;;;;;;;;;;;;;;;9.39;100.00;98646.78;5011909;28;19924;-69
2021/11/13 09:19:24;;;;;;;;;;;;;;;9.19;100.00;98642.28;5011334;28;19924;-68
2021/11/13 09:21:51;;;;;;;;;;;;;;;9.38;100.00;98650.25;5025496;28;19913;-68
2021/11/13 09:24:17;;;;;;;;;;;;;;;9.69;100.00;98647.47;5028925;28;19920;-69
2021/11/13 09:26:42;;;;;;;;;;;;;;;9.47;100.00;98642.25;5026730;28;20406;-68
2021/11/13 09:29:08;;;;;;;;;;;;;;;9.88;100.00;98634.84;5027099;28;19971;-69
2021/11/13 09:31:35;;;;;;;;;;;;;;;9.95;100.00;98633.75;5010446;28;19917;-68
2021/11/13 09:34:04;;;;;;;;;;;;;;;9.57;100.00;98640.19;5010275;28;19921;-68
2021/11/13 09:36:29;;;;;;;;;;;;;;;9.62;100.00;98639.16;5028028;28;20299;-68
2021/11/13 09:38:57;;;;;;;;;;;;;;;9.77;100.00;98642.09;5026812;28;19921;-68
2021/11/13 09:41:22;;;;;;;;;;;;;;;9.85;100.00;98647.78;5028292;28;19924;-68
2021/11/13 09:43:48;;;;;;;;;;;;;;;9.74;100.00;98644.75;5010234;28;19944;-68
2021/11/13 09:46:13;;;;;;;;;;;;;;;9.54;100.00;98654.00;5028630;28;19920;-68
2021/11/13 09:48:40;;;;;;;;;;;;;;;9.64;100.00;98650.22;5027828;28;19979;-68
2021/11/13 09:51:06;;;;;;;;;;;;;;;9.76;100.00;98650.69;5029749;28;20575;-68
2021/11/13 09:53:32;;;;;;;;;;;;;;;10.17;100.00;98651.84;5012296;28;21005;-68
2021/11/13 09:55:58;;;;;;;;;;;;;;;10.12;100.00;98655.44;5025288;28;20012;-68
2021/11/13 09:58:23;;;;;;;;;;;;;;;9.91;100.00;98646.75;5026803;28;20019;-69
2021/11/13 10:00:49;;;;;;;;;;;;;;;10.09;100.00;98650.41;5028431;28;20378;-68
2021/11/13 10:03:19;;;;;;;;;;;;;;;10.28;100.00;98651.41;5032316;28;20404;-68
2021/11/13 10:05:53;;;;;;;;;;;;;;;10.31;100.00;98651.38;5031874;28;19917;-68
2021/11/13 10:08:23;;;;;;;;;;;;;;;10.12;100.00;98651.13;5031114;28;19925;-68
2021/11/13 10:10:49;;;;;;;;;;;;;;;10.00;100.00;98647.28;5032136;28;20273;-68
2021/11/13 10:13:28;;;;;;;;;;;;;;;10.06;100.00;98646.22;5008782;28;20651;-68
2021/11/13 10:15:55;;;;;;;;;;;;;;;10.03;100.00;98644.59;5011534;28;19928;-68
2021/11/13 10:18:22;;;;;;;;;;;;;;;10.34;100.00;98650.41;5012735;28;19963;-68
2021/11/13 10:20:48;;;;;;;;;;;;;;;10.48;100.00;98642.16;5031379;28;20359;-68
2021/11/13 10:23:32;;;;;;;;;;;;;;;10.48;100.00;98637.03;5031178;28;20463;-68
2021/11/13 10:25:59;;;;;;;;;;;;;;;10.46;100.00;98629.34;5030088;28;19928;-68
2021/11/13 10:28:24;;;;;;;;;;;;;;;10.30;100.00;98639.38;5029768;28;20429;-68
2021/11/13 10:31:03;;;;;;;;;;;;;;;10.61;100.00;98633.09;5030774;28;20077;-67
2021/11/13 10:33:29;;;;;;;;;;;;;;;10.69;100.00;98636.19;5030781;28;19940;-68
2021/11/13 10:35:54;;;;;;;;;;;;;;;10.68;100.00;98629.38;5030811;28;19913;-68
2021/11/13 10:38:20;;;;;;;;;;;;;;;10.71;100.00;98631.00;5031354;28;19917;-68
2021/11/13 10:40:50;;;;;;;;;;;;;;;10.99;100.00;98629.03;5031447;28;19952;-68
2021/11/13 10:43:16;;;;;;;;;;;;;;;10.39;100.00;98628.72;5011370;28;19928;-68
2021/11/13 10:45:42;;;;;;;;;;;;;;;11.16;100.00;98628.34;5031200;28;19917;-68
2021/11/13 10:48:21;;;;;;;;;;;;;;;11.77;100.00;98617.22;5014002;28;20277;-68
2021/11/13 10:50:46;;;;;;;;;;;;;;;11.08;100.00;98612.34;5014050;28;19939;-68
2021/11/13 10:53:14;;;;;;;;;;;;;;;11.59;100.00;98613.69;5013899;28;19913;-68
2021/11/13 10:55:40;;;;;;;;;;;;;;;11.92;100.00;98605.41;5030220;28;19921;-70
2021/11/13 10:58:24;;;;;;;;;;;;;;;11.17;100.00;98605.97;5030422;28;19917;-68
2021/11/13 11:00:50;;;;;;;;;;;;;;;11.15;100.00;98608.63;5029958;28;19920;-68
2021/11/13 11:03:15;;;;;;;;;;;;;;;11.01;100.00;98610.91;5012742;28;19913;-68
2021/11/13 11:05:47;;;;;;;;;;;;;;;11.49;100.00;98614.97;5029399;28;19917;-68
2021/11/13 11:08:25;;;;;;;;;;;;;;;11.22;100.00;98604.91;5029646;28;19929;-68
2021/11/13 11:10:51;;;;;;;;;;;;;;;11.04;100.00;98605.66;5028256;28;19923;-68
2021/11/13 11:13:17;;;;;;;;;;;;;;;11.04;100.00;98603.09;5029900;28;20366;-68
2021/11/13 11:15:42;;;;;;;;;;;;;;;11.30;100.00;98608.00;5025029;28;19952;-67
2021/11/13 11:18:07;;;;;;;;;;;;;;;11.30;100.00;98605.41;5026935;28;19928;-68
2021/11/13 11:20:33;;;;;;;;;;;;;;;11.19;100.00;98599.88;5020874;28;20585;-67
2021/11/13 11:22:58;;;;;;;;;;;;;;;10.67;100.00;98601.94;5003719;28;19920;-67
2021/11/13 11:25:26;;;;;;;;;;;;;;;10.93;100.00;98607.81;5022506;28;19964;-67
2021/11/13 11:27:52;;;;;;;;;;;;;;;10.75;100.00;98606.81;5020378;28;19965;-67
2021/11/13 11:30:18;;;;;;;;;;;;;;;11.40;100.00;98612.78;5019886;28;19917;-68
2021/11/13 11:32:48;;;;;;;;;;;;;;;11.41;100.00;98604.16;5018532;28;19921;-67
2021/11/13 11:35:18;;;;;;;;;;;;;;;11.48;100.00;98608.16;5004444;28;19925;-67
2021/11/13 11:37:44;;;;;;;;;;;;;;;11.74;100.00;98601.88;5020619;28;19951;-68
2021/11/13 11:40:11;;;;;;;;;;;;;;;11.77;100.00;98601.75;5003720;28;19917;-68
2021/11/13 11:42:48;;;;;;;;;;;;;;;11.77;100.00;98606.91;5019955;28;20315;-67
2021/11/13 11:45:14;;;;;;;;;;;;;;;11.62;100.00;98608.38;5021775;28;21197;-67
2021/11/13 11:47:42;;;;;;;;;;;;;;;12.00;100.00;98612.84;5019728;28;20436;-67
2021/11/13 11:50:08;;;;;;;;;;;;;;;11.55;100.00;98611.31;5004167;28;19959;-66
2021/11/13 11:52:34;;;;;;;;;;;;;;;11.79;100.00;98611.97;5020921;28;19948;-66
2021/11/13 11:55:01;;;;;;;;;;;;;;;12.16;100.00;98616.41;5020486;28;20000;-67
2021/11/13 11:57:37;;;;;;;;;;;;;;;11.83;100.00;98610.94;5002020;28;20401;-66
2021/11/13 12:00:11;;;;;;;;;;;;;;;11.65;100.00;98610.81;5002055;28;19928;-66
2021/11/13 12:02:41;;;;;;;;;;;;;;;11.77;100.00;98612.06;5020041;28;19975;-66
2021/11/13 12:05:08;;;;;;;;;;;;;;;11.88;100.00;98611.63;5020264;28;19913;-66
2021/11/13 12:07:34;;;;;;;;;;;;;;;11.86;100.00;98611.66;5018307;28;19921;-66
2021/11/13 12:10:10;;;;;;;;;;;;;;;11.81;100.00;98607.59;5020268;28;19921;-67
2021/11/13 12:12:36;;;;;;;;;;;;;;;11.84;100.00;98607.47;5019875;28;19928;-66
2021/11/13 12:15:18;;;;;;;;;;;;;;;11.43;100.00;98612.66;5020273;28;19929;-67
2021/11/13 12:17:45;;;;;;;;;;;;;;;11.83;100.00;98610.94;5020733;28;19959;-66
2021/11/13 12:20:26;;;;;;;;;;;;;;;11.84;100.00;98608.31;4982848;28;21085;-67
2021/11/13 12:22:55;;;;;;;;;;;;;;;12.21;100.00;98611.06;5020070;28;19921;-67
2021/11/13 12:25:21;;;;;;;;;;;;;;;12.36;100.00;98607.75;5020004;28;20137;-67
2021/11/13 12:28:05;;;;;;;;;;;;;;;11.73;100.00;98616.50;5003074;28;20300;-67
2021/11/13 12:30:41;;;;;;;;;;;;;;;11.74;100.00;98614.75;5019557;28;19917;-66
2021/11/13 12:33:39;;;;;;;;;;;;;;;11.71;100.00;98613.16;5020522;28;20583;-67
2021/11/13 12:36:18;;;;;;;;;;;;;;;11.99;100.00;98611.97;4968230;28;20012;-67
2021/11/13 12:38:52;;;;;;;;;;;;;;;11.83;100.00;98618.69;5017872;28;19917;-67
2021/11/13 12:41:22;;;;;;;;;;;;;;;12.18;100.00;98617.19;5019516;28;19925;-67
2021/11/13 12:43:51;;;;;;;;;;;;;;;12.24;100.00;98618.66;5018805;28;20010;-66